sensor_id;sensor_type;location;lat;lon;timestamp;temperature;humidity
11423;DHT22;5768;51.476;7.210;2024-03-17T00:00:10;8.30;13.90
11423;DHT22;5768;51.476;7.210;2024-03-17T00:05:22;8.30;13.80
11423;DHT22;5768;51.476;7.210;2024-03-17T00:10:27;8.30;13.90
11423;DHT22;5768;51.476;7.210;2024-03-17T00:15:32;8.20;14.10
11423;DHT22;5768;51.476;7.210;2024-03-17T00:20:36;8.10;14.10
11423;DHT22;5768;51.476;7.210;2024-03-17T00:25:50;8.10;14.20
11423;DHT22;5768;51.476;7.210;2024-03-17T00:31:03;8.10;14.20
11423;DHT22;5768;51.476;7.210;2024-03-17T00:36:07;7.90;14.30
11423;DHT22;5768;51.476;7.210;2024-03-17T00:41:13;7.90;14.30
11423;DHT22;5768;51.476;7.210;2024-03-17T00:46:27;7.90;14.20
11423;DHT22;5768;51.476;7.210;2024-03-17T00:51:35;7.80;14.30
11423;DHT22;5768;51.476;7.210;2024-03-17T00:56:42;7.70;14.30
11423;DHT22;5768;51.476;7.210;2024-03-17T01:01:48;7.70;14.40
11423;DHT22;5768;51.476;7.210;2024-03-17T01:07:12;7.70;14.50
11423;DHT22;5768;51.476;7.210;2024-03-17T01:12:18;7.70;14.50
11423;DHT22;5768;51.476;7.210;2024-03-17T01:18:06;7.60;14.50
11423;DHT22;5768;51.476;7.210;2024-03-17T01:23:15;7.60;14.50
11423;DHT22;5768;51.476;7.210;2024-03-17T01:28:19;7.60;14.60
11423;DHT22;5768;51.476;7.210;2024-03-17T01:33:25;7.50;14.60
11423;DHT22;5768;51.476;7.210;2024-03-17T01:38:38;7.40;14.70
11423;DHT22;5768;51.476;7.210;2024-03-17T01:43:41;7.40;14.70
11423;DHT22;5768;51.476;7.210;2024-03-17T01:48:45;7.30;14.80
11423;DHT22;5768;51.476;7.210;2024-03-17T01:53:51;7.30;14.90
11423;DHT22;5768;51.476;7.210;2024-03-17T01:58:56;7.20;14.80
11423;DHT22;5768;51.476;7.210;2024-03-17T02:04:01;7.20;14.80
11423;DHT22;5768;51.476;7.210;2024-03-17T02:09:06;7.20;14.80
11423;DHT22;5768;51.476;7.210;2024-03-17T02:14:10;7.20;14.70
11423;DHT22;5768;51.476;7.210;2024-03-17T02:19:18;7.30;14.60
11423;DHT22;5768;51.476;7.210;2024-03-17T02:24:24;6.90;14.70
11423;DHT22;5768;51.476;7.210;2024-03-17T02:29:34;7.20;14.70
11423;DHT22;5768;51.476;7.210;2024-03-17T02:35:00;7.20;14.70
11423;DHT22;5768;51.476;7.210;2024-03-17T02:40:08;7.00;14.80
11423;DHT22;5768;51.476;7.210;2024-03-17T02:45:11;7.10;14.70
11423;DHT22;5768;51.476;7.210;2024-03-17T02:50:14;7.00;14.70
11423;DHT22;5768;51.476;7.210;2024-03-17T02:55:18;7.10;14.70
11423;DHT22;5768;51.476;7.210;2024-03-17T03:00:20;7.00;14.70
11423;DHT22;5768;51.476;7.210;2024-03-17T03:05:23;7.00;14.70
11423;DHT22;5768;51.476;7.210;2024-03-17T03:10:27;7.10;14.70
11423;DHT22;5768;51.476;7.210;2024-03-17T03:15:31;7.00;14.60
11423;DHT22;5768;51.476;7.210;2024-03-17T03:20:35;7.00;14.60
11423;DHT22;5768;51.476;7.210;2024-03-17T03:25:39;6.90;14.70
11423;DHT22;5768;51.476;7.210;2024-03-17T03:30:41;6.90;14.60
11423;DHT22;5768;51.476;7.210;2024-03-17T03:35:43;6.90;14.70
11423;DHT22;5768;51.476;7.210;2024-03-17T03:40:50;6.90;14.70
11423;DHT22;5768;51.476;7.210;2024-03-17T03:45:53;6.90;14.70
11423;DHT22;5768;51.476;7.210;2024-03-17T03:50:55;6.90;14.70
11423;DHT22;5768;51.476;7.210;2024-03-17T03:55:59;6.90;14.70
11423;DHT22;5768;51.476;7.210;2024-03-17T04:01:09;6.90;14.70
11423;DHT22;5768;51.476;7.210;2024-03-17T04:06:15;6.90;14.70
11423;DHT22;5768;51.476;7.210;2024-03-17T04:11:25;6.60;14.80
11423;DHT22;5768;51.476;7.210;2024-03-17T04:16:27;6.90;14.90
11423;DHT22;5768;51.476;7.210;2024-03-17T04:21:33;6.90;15.00
11423;DHT22;5768;51.476;7.210;2024-03-17T04:26:40;7.00;15.00
11423;DHT22;5768;51.476;7.210;2024-03-17T04:31:44;7.10;15.00
11423;DHT22;5768;51.476;7.210;2024-03-17T04:36:49;7.10;15.00
11423;DHT22;5768;51.476;7.210;2024-03-17T04:41:53;7.20;15.10
11423;DHT22;5768;51.476;7.210;2024-03-17T04:46:56;7.30;15.10
11423;DHT22;5768;51.476;7.210;2024-03-17T04:51:59;7.40;15.10
11423;DHT22;5768;51.476;7.210;2024-03-17T04:57:07;7.40;15.20
11423;DHT22;5768;51.476;7.210;2024-03-17T05:02:17;7.30;15.30
11423;DHT22;5768;51.476;7.210;2024-03-17T05:07:23;7.20;15.40
11423;DHT22;5768;51.476;7.210;2024-03-17T05:12:27;7.20;15.60
11423;DHT22;5768;51.476;7.210;2024-03-17T05:17:29;7.10;15.80
11423;DHT22;5768;51.476;7.210;2024-03-17T05:22:32;7.00;16.00
11423;DHT22;5768;51.476;7.210;2024-03-17T05:27:35;7.00;16.20
11423;DHT22;5768;51.476;7.210;2024-03-17T05:32:38;7.00;16.30
11423;DHT22;5768;51.476;7.210;2024-03-17T05:37:40;7.00;16.40
11423;DHT22;5768;51.476;7.210;2024-03-17T05:42:43;7.00;16.40
11423;DHT22;5768;51.476;7.210;2024-03-17T05:47:46;7.10;16.50
11423;DHT22;5768;51.476;7.210;2024-03-17T05:52:48;7.20;16.50
11423;DHT22;5768;51.476;7.210;2024-03-17T05:57:53;7.40;16.40
11423;DHT22;5768;51.476;7.210;2024-03-17T06:02:55;7.50;16.40
11423;DHT22;5768;51.476;7.210;2024-03-17T06:07:58;7.70;16.30
11423;DHT22;5768;51.476;7.210;2024-03-17T06:13:02;7.80;16.20
11423;DHT22;5768;51.476;7.210;2024-03-17T06:18:04;7.90;16.10
11423;DHT22;5768;51.476;7.210;2024-03-17T06:23:09;8.00;16.00
11423;DHT22;5768;51.476;7.210;2024-03-17T06:28:14;8.10;15.90
11423;DHT22;5768;51.476;7.210;2024-03-17T06:33:18;8.20;15.80
11423;DHT22;5768;51.476;7.210;2024-03-17T06:38:20;8.20;15.70
11423;DHT22;5768;51.476;7.210;2024-03-17T06:43:24;8.30;15.70
11423;DHT22;5768;51.476;7.210;2024-03-17T06:48:29;8.30;15.50
11423;DHT22;5768;51.476;7.210;2024-03-17T06:53:32;8.50;15.40
11423;DHT22;5768;51.476;7.210;2024-03-17T06:58:36;8.60;15.20
11423;DHT22;5768;51.476;7.210;2024-03-17T07:03:38;8.80;15.10
11423;DHT22;5768;51.476;7.210;2024-03-17T07:08:41;9.00;14.90
11423;DHT22;5768;51.476;7.210;2024-03-17T07:13:44;9.30;14.70
11423;DHT22;5768;51.476;7.210;2024-03-17T07:18:47;9.60;14.40
11423;DHT22;5768;51.476;7.210;2024-03-17T07:23:50;9.70;14.10
11423;DHT22;5768;51.476;7.210;2024-03-17T07:28:54;10.10;14.90
11423;DHT22;5768;51.476;7.210;2024-03-17T07:33:56;10.40;14.30
11423;DHT22;5768;51.476;7.210;2024-03-17T07:38:59;10.70;13.50
11423;DHT22;5768;51.476;7.210;2024-03-17T07:44:07;11.10;13.20
11423;DHT22;5768;51.476;7.210;2024-03-17T07:49:46;11.30;13.10
11423;DHT22;5768;51.476;7.210;2024-03-17T07:54:49;11.70;12.90
11423;DHT22;5768;51.476;7.210;2024-03-17T07:59:53;11.90;12.70
11423;DHT22;5768;51.476;7.210;2024-03-17T08:04:55;12.10;12.60
11423;DHT22;5768;51.476;7.210;2024-03-17T08:09:59;12.30;12.50
11423;DHT22;5768;51.476;7.210;2024-03-17T08:15:04;12.50;12.40
11423;DHT22;5768;51.476;7.210;2024-03-17T08:20:08;12.70;12.30
11423;DHT22;5768;51.476;7.210;2024-03-17T08:25:11;12.90;12.40
11423;DHT22;5768;51.476;7.210;2024-03-17T08:30:15;13.30;12.20
11423;DHT22;5768;51.476;7.210;2024-03-17T08:35:17;13.70;11.90
11423;DHT22;5768;51.476;7.210;2024-03-17T08:40:19;13.90;11.90
11423;DHT22;5768;51.476;7.210;2024-03-17T08:45:24;14.20;11.70
11423;DHT22;5768;51.476;7.210;2024-03-17T08:50:27;14.00;11.80
11423;DHT22;5768;51.476;7.210;2024-03-17T08:55:29;14.00;11.80
11423;DHT22;5768;51.476;7.210;2024-03-17T09:00:33;14.10;11.80
11423;DHT22;5768;51.476;7.210;2024-03-17T09:05:48;14.20;11.70
11423;DHT22;5768;51.476;7.210;2024-03-17T09:11:12;14.30;11.70
11423;DHT22;5768;51.476;7.210;2024-03-17T09:16:17;14.60;11.80
11423;DHT22;5768;51.476;7.210;2024-03-17T09:21:24;14.70;11.50
11423;DHT22;5768;51.476;7.210;2024-03-17T09:26:33;15.00;11.60
11423;DHT22;5768;51.476;7.210;2024-03-17T09:31:37;15.10;11.50
11423;DHT22;5768;51.476;7.210;2024-03-17T09:36:41;15.30;11.50
11423;DHT22;5768;51.476;7.210;2024-03-17T09:41:51;15.40;11.60
11423;DHT22;5768;51.476;7.210;2024-03-17T09:46:59;15.50;11.60
11423;DHT22;5768;51.476;7.210;2024-03-17T09:52:04;15.50;11.40
11423;DHT22;5768;51.476;7.210;2024-03-17T09:57:17;15.80;11.40
11423;DHT22;5768;51.476;7.210;2024-03-17T10:02:30;15.90;11.40
11423;DHT22;5768;51.476;7.210;2024-03-17T10:07:38;16.20;11.30
11423;DHT22;5768;51.476;7.210;2024-03-17T10:12:44;16.30;11.20
11423;DHT22;5768;51.476;7.210;2024-03-17T10:17:55;16.50;11.30
11423;DHT22;5768;51.476;7.210;2024-03-17T10:23:07;16.70;11.10
11423;DHT22;5768;51.476;7.210;2024-03-17T10:28:12;16.80;11.20
11423;DHT22;5768;51.476;7.210;2024-03-17T10:39:24;17.00;10.90
11423;DHT22;5768;51.476;7.210;2024-03-17T10:44:32;16.80;10.90
11423;DHT22;5768;51.476;7.210;2024-03-17T10:49:39;17.40;10.90
11423;DHT22;5768;51.476;7.210;2024-03-17T10:54:47;17.90;10.90
11423;DHT22;5768;51.476;7.210;2024-03-17T10:59:50;17.80;10.70
11423;DHT22;5768;51.476;7.210;2024-03-17T11:04:59;18.10;10.70
11423;DHT22;5768;51.476;7.210;2024-03-17T11:10:03;18.10;10.60
11423;DHT22;5768;51.476;7.210;2024-03-17T11:21:10;18.60;10.60
11423;DHT22;5768;51.476;7.210;2024-03-17T11:31:46;19.40;10.20
11423;DHT22;5768;51.476;7.210;2024-03-17T11:37:45;19.20;10.30
11423;DHT22;5768;51.476;7.210;2024-03-17T11:43:01;19.10;10.30
11423;DHT22;5768;51.476;7.210;2024-03-17T11:48:21;19.00;10.50
11423;DHT22;5768;51.476;7.210;2024-03-17T11:54:05;19.10;10.40
11423;DHT22;5768;51.476;7.210;2024-03-17T11:59:32;18.90;10.30
11423;DHT22;5768;51.476;7.210;2024-03-17T12:04:56;18.90;10.50
11423;DHT22;5768;51.476;7.210;2024-03-17T12:10:16;19.20;10.40
11423;DHT22;5768;51.476;7.210;2024-03-17T12:15:20;19.30;10.60
11423;DHT22;5768;51.476;7.210;2024-03-17T12:20:22;19.60;11.50
11423;DHT22;5768;51.476;7.210;2024-03-17T12:25:32;20.10;11.40
11423;DHT22;5768;51.476;7.210;2024-03-17T12:30:38;20.60;10.50
11423;DHT22;5768;51.476;7.210;2024-03-17T12:36:04;20.70;11.20
11423;DHT22;5768;51.476;7.210;2024-03-17T12:41:20;21.40;10.60
11423;DHT22;5768;51.476;7.210;2024-03-17T12:46:34;21.30;10.90
11423;DHT22;5768;51.476;7.210;2024-03-17T12:51:43;21.00;11.00
11423;DHT22;5768;51.476;7.210;2024-03-17T12:56:46;19.90;11.00
11423;DHT22;5768;51.476;7.210;2024-03-17T13:02:11;20.50;10.20
11423;DHT22;5768;51.476;7.210;2024-03-17T13:07:14;21.30;10.20
11423;DHT22;5768;51.476;7.210;2024-03-17T13:12:19;22.00;10.20
11423;DHT22;5768;51.476;7.210;2024-03-17T13:17:21;22.20;10.40
11423;DHT22;5768;51.476;7.210;2024-03-17T13:22:29;22.60;10.10
11423;DHT22;5768;51.476;7.210;2024-03-17T13:27:34;22.40;10.00
11423;DHT22;5768;51.476;7.210;2024-03-17T13:32:36;23.20;9.60
11423;DHT22;5768;51.476;7.210;2024-03-17T13:37:39;22.10;9.80
11423;DHT22;5768;51.476;7.210;2024-03-17T13:42:52;23.40;10.00
11423;DHT22;5768;51.476;7.210;2024-03-17T13:47:57;23.30;9.70
11423;DHT22;5768;51.476;7.210;2024-03-17T13:53:04;22.80;10.40
11423;DHT22;5768;51.476;7.210;2024-03-17T13:58:11;22.40;9.80
11423;DHT22;5768;51.476;7.210;2024-03-17T14:03:13;22.10;10.00
11423;DHT22;5768;51.476;7.210;2024-03-17T14:08:16;22.00;9.70
11423;DHT22;5768;51.476;7.210;2024-03-17T14:13:20;21.30;10.10
11423;DHT22;5768;51.476;7.210;2024-03-17T14:18:22;20.90;9.60
11423;DHT22;5768;51.476;7.210;2024-03-17T14:24:12;20.70;9.50
11423;DHT22;5768;51.476;7.210;2024-03-17T14:29:24;20.50;10.00
11423;DHT22;5768;51.476;7.210;2024-03-17T14:34:30;20.00;10.10
11423;DHT22;5768;51.476;7.210;2024-03-17T14:39:40;19.60;10.00
11423;DHT22;5768;51.476;7.210;2024-03-17T14:45:04;19.50;9.80
11423;DHT22;5768;51.476;7.210;2024-03-17T14:50:24;19.40;9.80
11423;DHT22;5768;51.476;7.210;2024-03-17T14:55:49;19.40;9.80
11423;DHT22;5768;51.476;7.210;2024-03-17T15:00:52;19.20;9.40
11423;DHT22;5768;51.476;7.210;2024-03-17T15:05:55;19.00;9.50
11423;DHT22;5768;51.476;7.210;2024-03-17T15:10:57;18.60;10.20
11423;DHT22;5768;51.476;7.210;2024-03-17T15:16:02;18.50;9.60
11423;DHT22;5768;51.476;7.210;2024-03-17T15:21:06;18.40;9.90
11423;DHT22;5768;51.476;7.210;2024-03-17T15:26:08;18.60;10.00
11423;DHT22;5768;51.476;7.210;2024-03-17T15:31:11;18.50;10.10
11423;DHT22;5768;51.476;7.210;2024-03-17T15:36:14;18.30;10.00
11423;DHT22;5768;51.476;7.210;2024-03-17T15:41:18;18.40;10.00
11423;DHT22;5768;51.476;7.210;2024-03-17T15:46:22;18.30;10.10
11423;DHT22;5768;51.476;7.210;2024-03-17T15:51:24;18.50;10.30
11423;DHT22;5768;51.476;7.210;2024-03-17T15:56:26;18.60;10.20
11423;DHT22;5768;51.476;7.210;2024-03-17T16:01:30;18.60;10.30
11423;DHT22;5768;51.476;7.210;2024-03-17T16:06:32;18.60;10.40
11423;DHT22;5768;51.476;7.210;2024-03-17T16:11:35;18.70;10.20
11423;DHT22;5768;51.476;7.210;2024-03-17T16:16:40;18.60;10.70
11423;DHT22;5768;51.476;7.210;2024-03-17T16:21:43;18.40;10.50
11423;DHT22;5768;51.476;7.210;2024-03-17T16:26:46;18.40;10.30
11423;DHT22;5768;51.476;7.210;2024-03-17T16:31:51;18.40;10.40
11423;DHT22;5768;51.476;7.210;2024-03-17T16:36:55;18.30;10.40
11423;DHT22;5768;51.476;7.210;2024-03-17T16:41:58;18.20;10.60
11423;DHT22;5768;51.476;7.210;2024-03-17T16:47:27;17.80;10.30
11423;DHT22;5768;51.476;7.210;2024-03-17T16:52:32;17.50;10.40
11423;DHT22;5768;51.476;7.210;2024-03-17T16:57:35;17.30;10.60
11423;DHT22;5768;51.476;7.210;2024-03-17T17:02:39;17.10;10.60
11423;DHT22;5768;51.476;7.210;2024-03-17T17:07:43;16.80;10.70
11423;DHT22;5768;51.476;7.210;2024-03-17T17:12:47;16.60;10.70
11423;DHT22;5768;51.476;7.210;2024-03-17T17:17:51;16.40;10.80
11423;DHT22;5768;51.476;7.210;2024-03-17T17:22:57;16.10;10.80
11423;DHT22;5768;51.476;7.210;2024-03-17T17:28:00;16.00;11.00
11423;DHT22;5768;51.476;7.210;2024-03-17T17:33:04;15.80;10.70
11423;DHT22;5768;51.476;7.210;2024-03-17T17:38:06;15.70;11.00
11423;DHT22;5768;51.476;7.210;2024-03-17T17:43:09;15.70;11.10
11423;DHT22;5768;51.476;7.210;2024-03-17T17:48:14;15.50;11.20
11423;DHT22;5768;51.476;7.210;2024-03-17T17:53:16;15.40;11.10
11423;DHT22;5768;51.476;7.210;2024-03-17T17:58:19;15.30;11.20
11423;DHT22;5768;51.476;7.210;2024-03-17T18:03:22;15.30;11.20
11423;DHT22;5768;51.476;7.210;2024-03-17T18:08:26;15.20;11.50
11423;DHT22;5768;51.476;7.210;2024-03-17T18:13:30;15.20;11.60
11423;DHT22;5768;51.476;7.210;2024-03-17T18:18:34;15.10;11.50
11423;DHT22;5768;51.476;7.210;2024-03-17T18:23:39;15.00;11.50
11423;DHT22;5768;51.476;7.210;2024-03-17T18:28:43;14.90;11.40
11423;DHT22;5768;51.476;7.210;2024-03-17T18:33:47;14.80;11.80
11423;DHT22;5768;51.476;7.210;2024-03-17T18:38:55;14.70;11.70
11423;DHT22;5768;51.476;7.210;2024-03-17T18:43:57;14.60;11.80
11423;DHT22;5768;51.476;7.210;2024-03-17T18:49:02;14.60;12.00
11423;DHT22;5768;51.476;7.210;2024-03-17T18:54:12;14.50;11.60
11423;DHT22;5768;51.476;7.210;2024-03-17T18:59:37;14.50;11.80
11423;DHT22;5768;51.476;7.210;2024-03-17T19:04:52;14.40;12.10
11423;DHT22;5768;51.476;7.210;2024-03-17T19:10:07;14.40;12.10
11423;DHT22;5768;51.476;7.210;2024-03-17T19:15:14;14.40;11.60
11423;DHT22;5768;51.476;7.210;2024-03-17T19:20:20;14.40;12.20
11423;DHT22;5768;51.476;7.210;2024-03-17T19:25:22;14.30;12.30
11423;DHT22;5768;51.476;7.210;2024-03-17T19:30:25;14.30;11.70
11423;DHT22;5768;51.476;7.210;2024-03-17T19:35:35;14.20;11.90
11423;DHT22;5768;51.476;7.210;2024-03-17T19:40:37;14.30;12.50
11423;DHT22;5768;51.476;7.210;2024-03-17T19:45:39;14.20;11.90
11423;DHT22;5768;51.476;7.210;2024-03-17T19:50:43;14.40;11.80
11423;DHT22;5768;51.476;7.210;2024-03-17T19:55:46;14.20;12.10
11423;DHT22;5768;51.476;7.210;2024-03-17T20:00:50;14.30;11.90
11423;DHT22;5768;51.476;7.210;2024-03-17T20:05:55;14.20;12.50
11423;DHT22;5768;51.476;7.210;2024-03-17T20:11:01;14.00;12.80
11423;DHT22;5768;51.476;7.210;2024-03-17T20:16:04;14.20;12.10
11423;DHT22;5768;51.476;7.210;2024-03-17T20:21:08;14.20;12.90
11423;DHT22;5768;51.476;7.210;2024-03-17T20:26:14;14.30;12.50
11423;DHT22;5768;51.476;7.210;2024-03-17T20:31:19;14.10;13.10
11423;DHT22;5768;51.476;7.210;2024-03-17T20:36:24;14.10;12.50
11423;DHT22;5768;51.476;7.210;2024-03-17T20:41:27;14.10;12.40
11423;DHT22;5768;51.476;7.210;2024-03-17T20:46:29;14.00;12.60
11423;DHT22;5768;51.476;7.210;2024-03-17T20:51:33;13.90;12.70
11423;DHT22;5768;51.476;7.210;2024-03-17T20:56:36;13.90;12.10
11423;DHT22;5768;51.476;7.210;2024-03-17T21:01:38;13.90;12.70
11423;DHT22;5768;51.476;7.210;2024-03-17T21:06:42;13.90;13.00
11423;DHT22;5768;51.476;7.210;2024-03-17T21:11:48;13.90;12.30
11423;DHT22;5768;51.476;7.210;2024-03-17T21:16:51;13.80;12.40
11423;DHT22;5768;51.476;7.210;2024-03-17T21:21:56;13.80;12.40
11423;DHT22;5768;51.476;7.210;2024-03-17T21:27:00;13.80;12.80
11423;DHT22;5768;51.476;7.210;2024-03-17T21:32:04;13.80;12.40
11423;DHT22;5768;51.476;7.210;2024-03-17T21:37:08;13.70;12.80
11423;DHT22;5768;51.476;7.210;2024-03-17T21:42:10;13.60;12.70
11423;DHT22;5768;51.476;7.210;2024-03-17T21:47:13;13.70;12.50
11423;DHT22;5768;51.476;7.210;2024-03-17T21:52:17;13.80;12.50
11423;DHT22;5768;51.476;7.210;2024-03-17T21:57:20;13.70;12.60
11423;DHT22;5768;51.476;7.210;2024-03-17T22:02:25;13.70;12.50
11423;DHT22;5768;51.476;7.210;2024-03-17T22:07:32;13.70;12.50
11423;DHT22;5768;51.476;7.210;2024-03-17T22:12:35;13.70;12.80
11423;DHT22;5768;51.476;7.210;2024-03-17T22:17:38;13.70;12.60
11423;DHT22;5768;51.476;7.210;2024-03-17T22:22:41;13.80;12.50
11423;DHT22;5768;51.476;7.210;2024-03-17T22:27:44;13.70;12.50
11423;DHT22;5768;51.476;7.210;2024-03-17T22:32:49;13.80;12.60
11423;DHT22;5768;51.476;7.210;2024-03-17T22:37:57;13.70;12.70
11423;DHT22;5768;51.476;7.210;2024-03-17T22:42:59;13.90;13.00
11423;DHT22;5768;51.476;7.210;2024-03-17T22:48:01;13.70;13.20
11423;DHT22;5768;51.476;7.210;2024-03-17T22:53:06;13.70;13.40
11423;DHT22;5768;51.476;7.210;2024-03-17T22:58:08;13.70;13.80
11423;DHT22;5768;51.476;7.210;2024-03-17T23:03:11;13.60;14.10
11423;DHT22;5768;51.476;7.210;2024-03-17T23:08:15;13.40;14.20
11423;DHT22;5768;51.476;7.210;2024-03-17T23:13:20;13.30;14.30
11423;DHT22;5768;51.476;7.210;2024-03-17T23:18:23;13.30;14.40
11423;DHT22;5768;51.476;7.210;2024-03-17T23:23:28;13.20;14.50
11423;DHT22;5768;51.476;7.210;2024-03-17T23:28:30;13.10;14.70
11423;DHT22;5768;51.476;7.210;2024-03-17T23:33:32;13.10;14.70
11423;DHT22;5768;51.476;7.210;2024-03-17T23:38:36;13.10;14.70
11423;DHT22;5768;51.476;7.210;2024-03-17T23:43:38;13.10;14.90
11423;DHT22;5768;51.476;7.210;2024-03-17T23:48:41;12.90;15.00
11423;DHT22;5768;51.476;7.210;2024-03-17T23:53:45;12.90;15.20
11423;DHT22;5768;51.476;7.210;2024-03-17T23:58:50;12.90;15.30
